sensor_id;sensor_type;location;lat;lon;timestamp;temperature;humidity
31975;DHT22;18500;43.618;1.474;2023-04-25T08:18:35;12.90;14.70
31975;DHT22;18500;43.618;1.474;2023-04-25T08:21:00;12.90;12.70
31975;DHT22;18500;43.618;1.474;2023-04-25T08:23:26;13.10;9.50
31975;DHT22;18500;43.618;1.474;2023-04-25T08:25:52;13.30;11.70
31975;DHT22;18500;43.618;1.474;2023-04-25T08:28:17;13.40;8.90
31975;DHT22;18500;43.618;1.474;2023-04-25T08:30:43;13.50;4.10
31975;DHT22;18500;43.618;1.474;2023-04-25T08:33:08;13.60;2.90
31975;DHT22;18500;43.618;1.474;2023-04-25T08:35:35;13.70;1.00
31975;DHT22;18500;43.618;1.474;2023-04-25T08:38:01;13.80;1.00
31975;DHT22;18500;43.618;1.474;2023-04-25T08:40:28;13.60;1.00
31975;DHT22;18500;43.618;1.474;2023-04-25T08:42:57;13.40;1.00
31975;DHT22;18500;43.618;1.474;2023-04-25T08:45:23;13.40;1.00
31975;DHT22;18500;43.618;1.474;2023-04-25T08:47:51;13.40;1.00
31975;DHT22;18500;43.618;1.474;2023-04-25T08:50:18;13.40;1.00
31975;DHT22;18500;43.618;1.474;2023-04-25T08:52:47;13.40;1.00
31975;DHT22;18500;43.618;1.474;2023-04-25T08:55:15;13.40;1.00
31975;DHT22;18500;43.618;1.474;2023-04-25T08:57:42;13.50;1.00
31975;DHT22;18500;43.618;1.474;2023-04-25T09:00:10;13.30;1.00
31975;DHT22;18500;43.618;1.474;2023-04-25T09:02:37;13.20;1.00
31975;DHT22;18500;43.618;1.474;2023-04-25T09:05:04;13.40;1.00
31975;DHT22;18500;43.618;1.474;2023-04-25T09:07:30;13.60;1.00
31975;DHT22;18500;43.618;1.474;2023-04-25T09:09:55;13.80;1.00
31975;DHT22;18500;43.618;1.474;2023-04-25T09:12:21;13.90;1.00
31975;DHT22;18500;43.618;1.474;2023-04-25T09:15:08;13.80;1.00
31975;DHT22;18500;43.618;1.474;2023-04-25T09:17:34;13.80;1.00
31975;DHT22;18500;43.618;1.474;2023-04-25T09:22:34;13.90;1.00
31975;DHT22;18500;43.618;1.474;2023-04-25T09:25:03;14.00;1.00
31975;DHT22;18500;43.618;1.474;2023-04-25T09:27:29;13.90;1.00
31975;DHT22;18500;43.618;1.474;2023-04-25T09:29:59;13.90;1.00
31975;DHT22;18500;43.618;1.474;2023-04-25T09:32:26;13.90;1.00
31975;DHT22;18500;43.618;1.474;2023-04-25T09:34:53;13.80;1.00
31975;DHT22;18500;43.618;1.474;2023-04-25T09:37:30;13.70;1.00
31975;DHT22;18500;43.618;1.474;2023-04-25T09:39:59;13.70;1.00
31975;DHT22;18500;43.618;1.474;2023-04-25T09:42:28;13.50;1.00
31975;DHT22;18500;43.618;1.474;2023-04-25T09:44:56;13.50;1.00
31975;DHT22;18500;43.618;1.474;2023-04-25T09:47:26;13.40;1.00
31975;DHT22;18500;43.618;1.474;2023-04-25T09:49:54;13.40;1.00
31975;DHT22;18500;43.618;1.474;2023-04-25T09:52:21;13.30;4.60
31975;DHT22;18500;43.618;1.474;2023-04-25T09:54:49;13.40;1.00
31975;DHT22;18500;43.618;1.474;2023-04-25T09:59:52;13.60;1.00
31975;DHT22;18500;43.618;1.474;2023-04-25T10:02:23;13.70;1.00
31975;DHT22;18500;43.618;1.474;2023-04-25T10:04:51;13.80;1.00
31975;DHT22;18500;43.618;1.474;2023-04-25T10:07:19;13.80;1.00
31975;DHT22;18500;43.618;1.474;2023-04-25T10:09:48;13.70;1.00
31975;DHT22;18500;43.618;1.474;2023-04-25T10:12:16;13.60;1.00
31975;DHT22;18500;43.618;1.474;2023-04-25T10:14:42;13.30;1.00
31975;DHT22;18500;43.618;1.474;2023-04-25T10:17:10;13.40;1.00
31975;DHT22;18500;43.618;1.474;2023-04-25T10:19:37;13.50;1.00
31975;DHT22;18500;43.618;1.474;2023-04-25T10:22:07;13.80;1.00
31975;DHT22;18500;43.618;1.474;2023-04-25T10:24:35;13.80;1.00
31975;DHT22;18500;43.618;1.474;2023-04-25T10:27:02;14.00;1.00
31975;DHT22;18500;43.618;1.474;2023-04-25T10:29:28;14.30;1.00
31975;DHT22;18500;43.618;1.474;2023-04-25T10:31:54;14.50;1.00
31975;DHT22;18500;43.618;1.474;2023-04-25T10:34:24;14.40;1.00
31975;DHT22;18500;43.618;1.474;2023-04-25T10:36:58;14.60;1.00
31975;DHT22;18500;43.618;1.474;2023-04-25T10:39:25;14.10;1.00
31975;DHT22;18500;43.618;1.474;2023-04-25T10:42:02;13.90;1.00
31975;DHT22;18500;43.618;1.474;2023-04-25T10:44:29;13.90;1.00
31975;DHT22;18500;43.618;1.474;2023-04-25T10:46:56;14.00;1.00
31975;DHT22;18500;43.618;1.474;2023-04-25T10:54:47;14.10;1.00
31975;DHT22;18500;43.618;1.474;2023-04-25T11:00:15;14.40;1.00
31975;DHT22;18500;43.618;1.474;2023-04-25T11:03:01;14.50;1.00
31975;DHT22;18500;43.618;1.474;2023-04-25T11:07:56;14.30;1.00
31975;DHT22;18500;43.618;1.474;2023-04-25T11:10:27;14.40;1.00
31975;DHT22;18500;43.618;1.474;2023-04-25T11:12:53;14.40;1.00
31975;DHT22;18500;43.618;1.474;2023-04-25T11:15:18;14.60;1.00
31975;DHT22;18500;43.618;1.474;2023-04-25T11:17:44;14.90;1.00
31975;DHT22;18500;43.618;1.474;2023-04-25T11:20:12;14.80;1.00
31975;DHT22;18500;43.618;1.474;2023-04-25T11:22:39;15.10;1.00
31975;DHT22;18500;43.618;1.474;2023-04-25T11:25:10;15.40;1.00
31975;DHT22;18500;43.618;1.474;2023-04-25T11:27:49;15.80;1.00
31975;DHT22;18500;43.618;1.474;2023-04-25T11:30:16;15.40;1.00
31975;DHT22;18500;43.618;1.474;2023-04-25T11:32:43;15.40;1.00
31975;DHT22;18500;43.618;1.474;2023-04-25T11:35:09;15.70;1.00
31975;DHT22;18500;43.618;1.474;2023-04-25T11:37:35;16.20;1.00
31975;DHT22;18500;43.618;1.474;2023-04-25T11:40:03;16.00;1.00
31975;DHT22;18500;43.618;1.474;2023-04-25T11:42:32;15.70;1.00
31975;DHT22;18500;43.618;1.474;2023-04-25T11:44:58;16.00;1.00
31975;DHT22;18500;43.618;1.474;2023-04-25T11:47:31;15.60;1.00
31975;DHT22;18500;43.618;1.474;2023-04-25T11:50:04;15.40;1.00
31975;DHT22;18500;43.618;1.474;2023-04-25T11:55:09;15.90;1.00
31975;DHT22;18500;43.618;1.474;2023-04-25T11:57:38;16.10;1.00
31975;DHT22;18500;43.618;1.474;2023-04-25T12:00:14;16.00;1.00
31975;DHT22;18500;43.618;1.474;2023-04-25T12:02:45;16.10;1.00
31975;DHT22;18500;43.618;1.474;2023-04-25T12:05:12;16.30;1.00
31975;DHT22;18500;43.618;1.474;2023-04-25T12:07:38;16.20;1.00
31975;DHT22;18500;43.618;1.474;2023-04-25T12:10:08;16.20;1.00
31975;DHT22;18500;43.618;1.474;2023-04-25T12:12:36;16.30;1.00
31975;DHT22;18500;43.618;1.474;2023-04-25T12:17:40;16.50;1.00
31975;DHT22;18500;43.618;1.474;2023-04-25T12:20:19;16.80;1.00
31975;DHT22;18500;43.618;1.474;2023-04-25T12:22:47;16.60;1.00
31975;DHT22;18500;43.618;1.474;2023-04-25T12:25:34;16.60;1.00
31975;DHT22;18500;43.618;1.474;2023-04-25T12:28:23;16.80;1.00
31975;DHT22;18500;43.618;1.474;2023-04-25T12:30:56;16.50;1.00
31975;DHT22;18500;43.618;1.474;2023-04-25T12:33:23;16.30;1.00
31975;DHT22;18500;43.618;1.474;2023-04-25T12:35:49;16.30;1.00
31975;DHT22;18500;43.618;1.474;2023-04-25T12:38:25;16.30;1.00
31975;DHT22;18500;43.618;1.474;2023-04-25T12:40:52;16.60;1.00
31975;DHT22;18500;43.618;1.474;2023-04-25T12:43:18;16.50;1.00
31975;DHT22;18500;43.618;1.474;2023-04-25T12:45:45;15.80;1.00
31975;DHT22;18500;43.618;1.474;2023-04-25T12:48:10;15.40;1.00
31975;DHT22;18500;43.618;1.474;2023-04-25T12:50:36;15.50;1.00
31975;DHT22;18500;43.618;1.474;2023-04-25T12:53:02;15.60;1.00
31975;DHT22;18500;43.618;1.474;2023-04-25T12:55:27;15.70;1.00
31975;DHT22;18500;43.618;1.474;2023-04-25T12:57:53;15.60;1.00
31975;DHT22;18500;43.618;1.474;2023-04-25T13:00:19;15.70;1.00
31975;DHT22;18500;43.618;1.474;2023-04-25T13:02:45;15.10;1.00
31975;DHT22;18500;43.618;1.474;2023-04-25T13:05:14;15.10;1.00
31975;DHT22;18500;43.618;1.474;2023-04-25T13:07:40;15.20;1.00
31975;DHT22;18500;43.618;1.474;2023-04-25T13:10:06;14.90;1.00
31975;DHT22;18500;43.618;1.474;2023-04-25T13:12:33;14.70;1.00
31975;DHT22;18500;43.618;1.474;2023-04-25T13:14:58;14.50;1.00
31975;DHT22;18500;43.618;1.474;2023-04-25T13:17:24;14.90;1.00
31975;DHT22;18500;43.618;1.474;2023-04-25T13:19:50;14.90;1.00
31975;DHT22;18500;43.618;1.474;2023-04-25T13:22:16;14.90;1.00
31975;DHT22;18500;43.618;1.474;2023-04-25T13:24:42;14.90;1.00
31975;DHT22;18500;43.618;1.474;2023-04-25T13:27:08;14.80;1.00
31975;DHT22;18500;43.618;1.474;2023-04-25T13:29:34;14.80;1.00
31975;DHT22;18500;43.618;1.474;2023-04-25T13:32:01;14.90;1.00
31975;DHT22;18500;43.618;1.474;2023-04-25T13:34:28;15.00;1.00
31975;DHT22;18500;43.618;1.474;2023-04-25T13:36:54;15.10;1.00
31975;DHT22;18500;43.618;1.474;2023-04-25T13:39:20;15.70;1.00
31975;DHT22;18500;43.618;1.474;2023-04-25T13:41:45;16.00;1.00
31975;DHT22;18500;43.618;1.474;2023-04-25T13:44:11;16.40;1.00
31975;DHT22;18500;43.618;1.474;2023-04-25T13:46:37;16.60;1.00
31975;DHT22;18500;43.618;1.474;2023-04-25T13:49:06;16.00;1.00
31975;DHT22;18500;43.618;1.474;2023-04-25T13:51:31;16.00;1.00
31975;DHT22;18500;43.618;1.474;2023-04-25T13:53:57;16.00;1.00
31975;DHT22;18500;43.618;1.474;2023-04-25T13:56:23;16.10;1.00
31975;DHT22;18500;43.618;1.474;2023-04-25T13:58:50;16.20;1.00
31975;DHT22;18500;43.618;1.474;2023-04-25T14:01:17;16.40;1.00
31975;DHT22;18500;43.618;1.474;2023-04-25T14:03:43;16.10;1.00
31975;DHT22;18500;43.618;1.474;2023-04-25T14:06:08;15.70;1.00
31975;DHT22;18500;43.618;1.474;2023-04-25T14:08:34;15.90;1.00
31975;DHT22;18500;43.618;1.474;2023-04-25T14:11:00;15.90;1.00
31975;DHT22;18500;43.618;1.474;2023-04-25T14:13:26;16.20;1.00
31975;DHT22;18500;43.618;1.474;2023-04-25T14:15:52;16.20;1.00
31975;DHT22;18500;43.618;1.474;2023-04-25T14:18:18;15.90;1.00
31975;DHT22;18500;43.618;1.474;2023-04-25T14:20:44;15.60;1.00
31975;DHT22;18500;43.618;1.474;2023-04-25T14:23:10;15.40;1.00
31975;DHT22;18500;43.618;1.474;2023-04-25T14:25:36;15.10;1.00
31975;DHT22;18500;43.618;1.474;2023-04-25T14:28:02;14.80;1.00
31975;DHT22;18500;43.618;1.474;2023-04-25T14:30:27;15.10;1.00
31975;DHT22;18500;43.618;1.474;2023-04-25T14:32:53;15.30;1.00
31975;DHT22;18500;43.618;1.474;2023-04-25T14:35:19;15.70;1.00
31975;DHT22;18500;43.618;1.474;2023-04-25T14:37:45;16.70;1.00
31975;DHT22;18500;43.618;1.474;2023-04-25T14:40:11;16.70;1.00
31975;DHT22;18500;43.618;1.474;2023-04-25T14:42:39;16.20;1.00
31975;DHT22;18500;43.618;1.474;2023-04-25T14:45:06;16.00;1.00
31975;DHT22;18500;43.618;1.474;2023-04-25T14:47:32;16.20;1.00
31975;DHT22;18500;43.618;1.474;2023-04-25T14:49:58;16.10;1.00
31975;DHT22;18500;43.618;1.474;2023-04-25T14:52:24;15.90;1.00
31975;DHT22;18500;43.618;1.474;2023-04-25T14:54:51;15.80;1.00
31975;DHT22;18500;43.618;1.474;2023-04-25T14:57:17;15.80;1.00
31975;DHT22;18500;43.618;1.474;2023-04-25T14:59:42;15.50;1.00
31975;DHT22;18500;43.618;1.474;2023-04-25T15:02:08;15.40;1.00
31975;DHT22;18500;43.618;1.474;2023-04-25T15:04:34;15.40;1.00
31975;DHT22;18500;43.618;1.474;2023-04-25T15:06:59;15.00;1.00
31975;DHT22;18500;43.618;1.474;2023-04-25T15:09:25;14.90;1.00
31975;DHT22;18500;43.618;1.474;2023-04-25T15:11:51;14.90;1.00
31975;DHT22;18500;43.618;1.474;2023-04-25T15:14:17;14.90;1.00
31975;DHT22;18500;43.618;1.474;2023-04-25T15:16:43;14.90;1.00
31975;DHT22;18500;43.618;1.474;2023-04-25T15:19:08;15.00;1.00
31975;DHT22;18500;43.618;1.474;2023-04-25T15:21:34;14.90;1.00
31975;DHT22;18500;43.618;1.474;2023-04-25T15:24:00;14.90;1.00
31975;DHT22;18500;43.618;1.474;2023-04-25T15:26:27;15.00;1.00
31975;DHT22;18500;43.618;1.474;2023-04-25T15:28:52;14.80;1.00
31975;DHT22;18500;43.618;1.474;2023-04-25T15:31:19;14.80;1.00
31975;DHT22;18500;43.618;1.474;2023-04-25T15:33:44;14.80;1.00
31975;DHT22;18500;43.618;1.474;2023-04-25T15:36:10;15.00;1.00
31975;DHT22;18500;43.618;1.474;2023-04-25T15:38:36;14.90;1.00
31975;DHT22;18500;43.618;1.474;2023-04-25T15:41:02;14.70;1.00
31975;DHT22;18500;43.618;1.474;2023-04-25T15:43:28;14.50;1.00
31975;DHT22;18500;43.618;1.474;2023-04-25T15:45:54;14.50;1.00
31975;DHT22;18500;43.618;1.474;2023-04-25T15:48:20;14.50;1.00
31975;DHT22;18500;43.618;1.474;2023-04-25T15:50:45;14.80;1.00
31975;DHT22;18500;43.618;1.474;2023-04-25T15:53:11;14.80;1.00
31975;DHT22;18500;43.618;1.474;2023-04-25T15:55:37;14.70;1.00
31975;DHT22;18500;43.618;1.474;2023-04-25T15:58:03;14.60;1.00
31975;DHT22;18500;43.618;1.474;2023-04-25T16:00:29;14.70;1.00
31975;DHT22;18500;43.618;1.474;2023-04-25T16:02:55;14.50;1.00
31975;DHT22;18500;43.618;1.474;2023-04-25T16:05:21;14.30;1.00
31975;DHT22;18500;43.618;1.474;2023-04-25T16:07:47;14.30;1.00
31975;DHT22;18500;43.618;1.474;2023-04-25T16:10:13;14.30;1.00
31975;DHT22;18500;43.618;1.474;2023-04-25T16:12:44;14.30;1.00
31975;DHT22;18500;43.618;1.474;2023-04-25T16:15:12;14.20;1.00
31975;DHT22;18500;43.618;1.474;2023-04-25T16:17:38;14.10;1.00
31975;DHT22;18500;43.618;1.474;2023-04-25T16:20:04;14.10;1.00
31975;DHT22;18500;43.618;1.474;2023-04-25T16:22:35;14.00;1.00
31975;DHT22;18500;43.618;1.474;2023-04-25T16:25:01;13.90;1.00
31975;DHT22;18500;43.618;1.474;2023-04-25T16:27:27;13.70;1.00
31975;DHT22;18500;43.618;1.474;2023-04-25T16:29:52;13.60;1.00
31975;DHT22;18500;43.618;1.474;2023-04-25T16:32:18;13.70;1.00
31975;DHT22;18500;43.618;1.474;2023-04-25T16:34:44;13.80;1.00
31975;DHT22;18500;43.618;1.474;2023-04-25T16:37:09;13.90;1.00
31975;DHT22;18500;43.618;1.474;2023-04-25T16:39:35;14.00;1.00
31975;DHT22;18500;43.618;1.474;2023-04-25T16:42:01;13.90;1.00
31975;DHT22;18500;43.618;1.474;2023-04-25T16:44:26;13.80;1.00
31975;DHT22;18500;43.618;1.474;2023-04-25T16:46:52;13.70;1.00
31975;DHT22;18500;43.618;1.474;2023-04-25T16:49:18;13.70;1.00
31975;DHT22;18500;43.618;1.474;2023-04-25T16:51:44;13.70;1.00
31975;DHT22;18500;43.618;1.474;2023-04-25T16:54:10;13.70;1.00
31975;DHT22;18500;43.618;1.474;2023-04-25T16:56:36;13.70;1.00
31975;DHT22;18500;43.618;1.474;2023-04-25T16:59:02;13.70;1.00
31975;DHT22;18500;43.618;1.474;2023-04-25T17:01:28;13.70;1.00
31975;DHT22;18500;43.618;1.474;2023-04-25T17:03:53;13.60;1.00
31975;DHT22;18500;43.618;1.474;2023-04-25T17:06:19;13.60;1.00
31975;DHT22;18500;43.618;1.474;2023-04-25T17:08:45;13.50;1.00
31975;DHT22;18500;43.618;1.474;2023-04-25T17:11:10;13.50;1.00
31975;DHT22;18500;43.618;1.474;2023-04-25T17:13:36;13.50;1.00
31975;DHT22;18500;43.618;1.474;2023-04-25T17:16:02;13.50;1.00
31975;DHT22;18500;43.618;1.474;2023-04-25T17:18:28;13.50;1.00
31975;DHT22;18500;43.618;1.474;2023-04-25T17:20:54;13.60;1.00
31975;DHT22;18500;43.618;1.474;2023-04-25T17:23:20;13.50;1.00
31975;DHT22;18500;43.618;1.474;2023-04-25T17:25:46;13.50;1.00
31975;DHT22;18500;43.618;1.474;2023-04-25T17:28:11;13.40;1.00
31975;DHT22;18500;43.618;1.474;2023-04-25T17:30:37;13.10;1.00
31975;DHT22;18500;43.618;1.474;2023-04-25T17:33:04;12.90;1.00
31975;DHT22;18500;43.618;1.474;2023-04-25T17:35:31;12.70;1.00
31975;DHT22;18500;43.618;1.474;2023-04-25T17:37:58;12.60;1.00
31975;DHT22;18500;43.618;1.474;2023-04-25T17:40:24;12.40;1.00
31975;DHT22;18500;43.618;1.474;2023-04-25T17:42:50;12.30;1.00
31975;DHT22;18500;43.618;1.474;2023-04-25T17:45:16;12.20;1.00
31975;DHT22;18500;43.618;1.474;2023-04-25T17:47:42;12.20;1.00
31975;DHT22;18500;43.618;1.474;2023-04-25T17:50:08;12.10;1.00
31975;DHT22;18500;43.618;1.474;2023-04-25T17:52:34;12.00;1.00
31975;DHT22;18500;43.618;1.474;2023-04-25T17:54:59;12.00;1.00
31975;DHT22;18500;43.618;1.474;2023-04-25T17:57:25;12.00;1.00
31975;DHT22;18500;43.618;1.474;2023-04-25T17:59:52;12.10;1.00
31975;DHT22;18500;43.618;1.474;2023-04-25T18:02:18;12.10;1.00
31975;DHT22;18500;43.618;1.474;2023-04-25T18:04:43;12.10;1.00
31975;DHT22;18500;43.618;1.474;2023-04-25T18:07:09;12.10;1.00
31975;DHT22;18500;43.618;1.474;2023-04-25T18:09:35;12.10;1.00
31975;DHT22;18500;43.618;1.474;2023-04-25T18:12:01;12.10;1.00
31975;DHT22;18500;43.618;1.474;2023-04-25T18:14:28;12.10;1.00
31975;DHT22;18500;43.618;1.474;2023-04-25T18:16:54;12.00;1.00
31975;DHT22;18500;43.618;1.474;2023-04-25T18:19:20;12.00;1.00
31975;DHT22;18500;43.618;1.474;2023-04-25T18:21:51;12.00;1.00
31975;DHT22;18500;43.618;1.474;2023-04-25T18:24:19;12.10;1.00
31975;DHT22;18500;43.618;1.474;2023-04-25T18:26:49;12.10;1.00
31975;DHT22;18500;43.618;1.474;2023-04-25T18:29:16;12.10;1.00
31975;DHT22;18500;43.618;1.474;2023-04-25T18:31:43;12.10;1.00
31975;DHT22;18500;43.618;1.474;2023-04-25T18:34:09;12.10;1.00
31975;DHT22;18500;43.618;1.474;2023-04-25T18:36:35;12.10;1.00
31975;DHT22;18500;43.618;1.474;2023-04-25T18:39:02;12.10;1.00
31975;DHT22;18500;43.618;1.474;2023-04-25T18:41:30;12.10;1.00
31975;DHT22;18500;43.618;1.474;2023-04-25T18:43:56;12.10;1.00
31975;DHT22;18500;43.618;1.474;2023-04-25T18:46:25;12.00;1.00
31975;DHT22;18500;43.618;1.474;2023-04-25T18:48:51;12.00;1.00
31975;DHT22;18500;43.618;1.474;2023-04-25T18:51:18;12.00;1.00
31975;DHT22;18500;43.618;1.474;2023-04-25T18:53:44;12.00;1.00
31975;DHT22;18500;43.618;1.474;2023-04-25T18:56:11;12.00;1.00
31975;DHT22;18500;43.618;1.474;2023-04-25T18:58:38;12.00;1.00
31975;DHT22;18500;43.618;1.474;2023-04-25T19:01:03;12.00;1.00
31975;DHT22;18500;43.618;1.474;2023-04-25T19:03:29;12.00;1.00
31975;DHT22;18500;43.618;1.474;2023-04-25T19:05:55;12.00;1.00
31975;DHT22;18500;43.618;1.474;2023-04-25T19:08:20;12.00;1.00
31975;DHT22;18500;43.618;1.474;2023-04-25T19:10:48;12.00;1.00
31975;DHT22;18500;43.618;1.474;2023-04-25T19:13:14;12.00;1.00
31975;DHT22;18500;43.618;1.474;2023-04-25T19:15:40;12.00;1.00
31975;DHT22;18500;43.618;1.474;2023-04-25T19:18:05;12.00;1.00
31975;DHT22;18500;43.618;1.474;2023-04-25T19:20:34;12.00;1.00
31975;DHT22;18500;43.618;1.474;2023-04-25T19:23:00;12.00;1.00
31975;DHT22;18500;43.618;1.474;2023-04-25T19:25:26;12.00;1.00
31975;DHT22;18500;43.618;1.474;2023-04-25T19:27:52;12.00;1.00
31975;DHT22;18500;43.618;1.474;2023-04-25T19:30:18;12.00;1.00
31975;DHT22;18500;43.618;1.474;2023-04-25T19:32:44;12.00;1.00
31975;DHT22;18500;43.618;1.474;2023-04-25T19:35:10;12.00;1.00
31975;DHT22;18500;43.618;1.474;2023-04-25T19:37:36;12.00;1.00
31975;DHT22;18500;43.618;1.474;2023-04-25T19:40:03;12.00;1.00
31975;DHT22;18500;43.618;1.474;2023-04-25T19:42:31;12.00;1.00
31975;DHT22;18500;43.618;1.474;2023-04-25T19:44:57;12.00;1.00
31975;DHT22;18500;43.618;1.474;2023-04-25T19:47:24;12.00;1.00
31975;DHT22;18500;43.618;1.474;2023-04-25T19:49:52;12.00;1.00
31975;DHT22;18500;43.618;1.474;2023-04-25T19:52:17;12.00;1.00
31975;DHT22;18500;43.618;1.474;2023-04-25T19:54:43;12.00;1.00
31975;DHT22;18500;43.618;1.474;2023-04-25T19:57:12;12.00;1.00
31975;DHT22;18500;43.618;1.474;2023-04-25T19:59:38;12.00;1.00
31975;DHT22;18500;43.618;1.474;2023-04-25T20:02:05;12.00;1.00
31975;DHT22;18500;43.618;1.474;2023-04-25T20:04:31;12.00;1.00
31975;DHT22;18500;43.618;1.474;2023-04-25T20:06:57;12.00;1.00
31975;DHT22;18500;43.618;1.474;2023-04-25T20:09:23;12.00;1.00
31975;DHT22;18500;43.618;1.474;2023-04-25T20:11:49;11.90;1.00
31975;DHT22;18500;43.618;1.474;2023-04-25T20:14:15;11.90;1.00
31975;DHT22;18500;43.618;1.474;2023-04-25T20:16:41;11.90;1.00
31975;DHT22;18500;43.618;1.474;2023-04-25T20:19:06;11.90;1.00
31975;DHT22;18500;43.618;1.474;2023-04-25T20:21:32;11.90;1.00
31975;DHT22;18500;43.618;1.474;2023-04-25T20:23:59;11.90;1.00
